createdAt,value
2023-05-17T00:02:53.555Z,4.10
2023-05-17T00:10:22.647Z,5.80
2023-05-17T00:15:22.058Z,6.10
2023-05-17T00:17:54.899Z,4.70
2023-05-17T00:25:21.714Z,3.90
2023-05-17T00:27:50.147Z,5.30
2023-05-17T00:35:21.670Z,2.90
2023-05-17T00:37:52.551Z,5.10
2023-05-17T00:40:22.276Z,5.30
2023-05-17T00:42:51.722Z,5.30
2023-05-17T00:47:51.115Z,4.60
2023-05-17T00:50:23.667Z,4.60
2023-05-17T00:52:53.297Z,3.30
2023-05-17T00:55:23.536Z,5.30
2023-05-17T01:00:21.043Z,5.00
2023-05-17T01:02:49.652Z,2.00
2023-05-17T01:05:21.675Z,2.20
2023-05-17T01:10:21.434Z,2.60
2023-05-17T01:13:03.488Z,3.70
2023-05-17T01:15:36.213Z,4.50
2023-05-17T01:18:19.285Z,3.80
2023-05-17T01:20:53.964Z,5.40
2023-05-17T01:23:43.168Z,5.40
2023-05-17T01:26:18.696Z,4.00
2023-05-17T01:28:51.035Z,3.90
2023-05-17T01:31:21.270Z,3.10
2023-05-17T01:33:49.816Z,3.80
2023-05-17T01:38:49.044Z,4.70
2023-05-17T01:41:29.307Z,4.90
2023-05-17T01:44:10.843Z,4.50
2023-05-17T01:46:43.465Z,4.90
2023-05-17T01:49:19.498Z,4.40
2023-05-17T01:51:59.949Z,3.50
2023-05-17T01:54:33.302Z,3.30
2023-05-17T01:57:08.232Z,3.30
2023-05-17T01:59:42.435Z,3.70
2023-05-17T02:04:42.457Z,4.30
2023-05-17T02:09:43.009Z,2.00
2023-05-17T02:12:12.364Z,2.90
2023-05-17T02:14:44.612Z,4.10
2023-05-17T02:17:13.379Z,1.70
2023-05-17T02:19:45.327Z,2.00
2023-05-17T02:24:44.437Z,2.50
2023-05-17T02:27:13.544Z,3.50
2023-05-17T02:29:43.119Z,2.90
2023-05-17T02:37:12.714Z,3.20
2023-05-17T02:42:11.874Z,1.30
2023-05-17T02:44:42.816Z,2.60
2023-05-17T02:47:12.361Z,3.10
2023-05-17T02:49:42.051Z,2.10
2023-05-17T02:52:12.888Z,4.00
2023-05-17T02:54:43.624Z,1.10
2023-05-17T02:59:44.982Z,2.00
2023-05-17T03:02:15.939Z,2.80
2023-05-17T03:04:45.703Z,3.90
2023-05-17T03:07:15.710Z,2.10
2023-05-17T03:09:46.435Z,2.50
2023-05-17T03:12:15.974Z,4.10
2023-05-17T03:14:47.552Z,4.00
2023-05-17T03:17:17.334Z,1.50
2023-05-17T03:19:48.286Z,4.10
2023-05-17T03:22:18.742Z,4.50
2023-05-17T03:24:48.734Z,4.30
2023-05-17T03:29:50.534Z,4.10
2023-05-17T03:32:21.329Z,2.10
2023-05-17T03:37:20.898Z,4.20
2023-05-17T03:42:18.830Z,3.90
2023-05-17T03:44:50.047Z,1.90
2023-05-17T03:47:24.923Z,1.00
2023-05-17T03:54:51.810Z,0.90
2023-05-17T03:59:53.771Z,0.90
2023-05-17T04:02:24.453Z,2.40
2023-05-17T04:04:54.615Z,1.30
2023-05-17T04:10:00.135Z,1.20
2023-05-17T04:15:01.121Z,4.20
2023-05-17T04:22:30.970Z,2.40
2023-05-17T04:27:31.038Z,3.10
2023-05-17T04:30:03.391Z,1.50
2023-05-17T04:32:34.285Z,1.80
2023-05-17T04:35:04.647Z,3.40
2023-05-17T04:37:33.066Z,4.90
2023-05-17T04:40:10.129Z,2.50
2023-05-17T04:42:40.078Z,4.20
2023-05-17T04:45:15.396Z,3.40
2023-05-17T04:50:14.917Z,5.70
2023-05-17T04:55:13.330Z,5.50
2023-05-17T04:57:45.774Z,6.30
2023-05-17T05:00:19.987Z,5.30
2023-05-17T05:02:55.659Z,3.90
2023-05-17T05:07:56.271Z,5.70
2023-05-17T05:10:24.805Z,4.60
2023-05-17T05:15:26.487Z,4.90
2023-05-17T05:20:28.509Z,6.70
2023-05-17T05:23:02.053Z,5.60
2023-05-17T05:28:01.581Z,7.10
2023-05-17T05:30:34.491Z,6.10
2023-05-17T05:33:04.192Z,5.90
2023-05-17T05:38:04.147Z,6.00
2023-05-17T05:45:34.347Z,7.00
2023-05-17T05:48:05.910Z,6.40
2023-05-17T05:50:36.634Z,8.80
2023-05-17T05:53:18.696Z,6.60
2023-05-17T05:58:24.159Z,9.10
2023-05-17T06:00:54.355Z,7.70
2023-05-17T06:05:54.991Z,9.30
2023-05-17T06:08:24.500Z,9.90
2023-05-17T06:10:54.860Z,7.40
2023-05-17T06:15:56.176Z,7.90
2023-05-17T06:20:55.814Z,9.10
2023-05-17T06:31:00.636Z,8.40
2023-05-17T06:38:32.090Z,8.60
2023-05-17T06:46:06.815Z,11.50
2023-05-17T06:56:02.735Z,12.30
2023-05-17T06:58:32.710Z,13.80
2023-05-17T07:06:05.816Z,11.40
2023-05-17T07:08:34.023Z,12.20
2023-05-17T07:13:34.695Z,11.00
2023-05-17T07:18:35.109Z,11.50
2023-05-17T07:21:06.217Z,11.30
2023-05-17T07:23:34.391Z,15.80
2023-05-17T07:28:34.181Z,14.10
2023-05-17T07:31:03.955Z,12.30
2023-05-17T07:36:03.966Z,11.50
2023-05-17T07:41:09.431Z,11.20
2023-05-17T07:43:38.990Z,11.40
2023-05-17T07:46:10.056Z,13.10
2023-05-17T07:48:38.343Z,12.20
2023-05-17T07:56:07.540Z,14.70
2023-05-17T07:58:38.402Z,12.50
2023-05-17T08:01:11.551Z,13.20
2023-05-17T08:06:16.891Z,12.50
2023-05-17T08:08:46.829Z,12.70
2023-05-17T08:11:16.911Z,11.50
2023-05-17T08:13:46.470Z,11.20
2023-05-17T08:16:20.493Z,11.10
2023-05-17T08:21:21.665Z,13.50
2023-05-17T08:23:51.705Z,14.90
2023-05-17T08:26:19.948Z,15.90
2023-05-17T08:31:21.176Z,14.80
2023-05-17T08:33:51.079Z,15.20
2023-05-17T08:36:22.058Z,15.10
2023-05-17T08:38:53.729Z,14.70
2023-05-17T08:41:22.740Z,13.80
2023-05-17T08:43:54.280Z,13.40
2023-05-17T08:46:26.655Z,17.80
2023-05-17T08:49:00.140Z,15.90
2023-05-17T08:51:29.826Z,15.90
2023-05-17T08:53:58.315Z,16.80
2023-05-17T08:56:31.240Z,16.60
2023-05-17T08:59:01.518Z,14.20
2023-05-17T09:01:33.509Z,14.20
2023-05-17T09:04:05.013Z,15.30
2023-05-17T09:06:35.358Z,16.00
2023-05-17T09:09:03.732Z,14.80
2023-05-17T09:11:34.152Z,16.50
2023-05-17T09:14:04.233Z,16.90
2023-05-17T09:16:38.742Z,18.00
2023-05-17T09:19:09.050Z,20.00
2023-05-17T09:21:42.385Z,16.90
2023-05-17T09:24:14.450Z,16.80
2023-05-17T09:26:48.520Z,16.70
2023-05-17T09:29:20.216Z,17.50
2023-05-17T09:31:56.853Z,16.40
2023-05-17T09:34:28.184Z,17.50
2023-05-17T09:36:58.064Z,16.70
2023-05-17T09:39:27.198Z,15.40
2023-05-17T09:41:58.828Z,15.90
2023-05-17T09:44:30.306Z,16.20
2023-05-17T09:47:04.222Z,15.60
2023-05-17T09:49:38.921Z,14.80
2023-05-17T09:52:10.906Z,14.90
2023-05-17T09:54:42.944Z,15.60
2023-05-17T09:59:43.299Z,16.90
2023-05-17T10:02:23.598Z,15.00
2023-05-17T10:04:54.022Z,18.30
2023-05-17T10:07:27.487Z,16.80
2023-05-17T10:09:57.480Z,16.90
2023-05-17T10:12:30.640Z,16.90
2023-05-17T10:17:35.147Z,18.40
2023-05-17T10:20:08.737Z,18.90
2023-05-17T10:22:40.061Z,16.60
2023-05-17T10:25:10.944Z,16.70
2023-05-17T10:27:41.866Z,17.50
2023-05-17T10:30:13.913Z,16.10
2023-05-17T10:32:45.926Z,15.10
2023-05-17T10:35:16.685Z,15.30
2023-05-17T10:37:46.433Z,16.10
2023-05-17T10:42:53.852Z,15.00
2023-05-17T10:45:28.160Z,16.30
2023-05-17T10:48:02.037Z,15.90
2023-05-17T10:50:30.799Z,15.50
2023-05-17T10:53:01.565Z,14.60
2023-05-17T10:55:40.774Z,16.40
2023-05-17T10:58:20.874Z,16.60
2023-05-17T11:00:55.185Z,17.60
2023-05-17T11:03:31.268Z,19.10
2023-05-17T11:06:25.239Z,17.10
2023-05-17T11:09:16.126Z,16.20
2023-05-17T11:12:06.700Z,17.70
2023-05-17T11:14:55.987Z,17.60
2023-05-17T11:17:30.165Z,18.40
2023-05-17T11:20:13.489Z,18.20
2023-05-17T11:22:44.791Z,19.90
2023-05-17T11:25:15.623Z,17.60
2023-05-17T11:27:49.152Z,20.50
2023-05-17T11:30:20.075Z,18.20
2023-05-17T11:32:51.718Z,17.20
2023-05-17T11:35:27.307Z,17.10
2023-05-17T11:38:13.853Z,19.90
2023-05-17T11:40:43.582Z,20.70
2023-05-17T11:43:19.081Z,19.70
2023-05-17T11:45:53.688Z,22.20
2023-05-17T11:48:27.232Z,19.90
2023-05-17T11:51:02.390Z,19.70
2023-05-17T11:53:32.710Z,18.10
2023-05-17T11:56:06.731Z,17.90
2023-05-17T11:58:35.782Z,17.30
2023-05-17T12:01:05.734Z,18.10
2023-05-17T12:03:35.034Z,18.90
2023-05-17T12:06:09.557Z,20.20
2023-05-17T12:08:40.405Z,20.50
2023-05-17T12:11:15.990Z,21.00
2023-05-17T12:13:48.984Z,19.60
2023-05-17T12:16:23.702Z,18.00
2023-05-17T12:18:54.272Z,19.40
2023-05-17T12:21:25.544Z,20.00
2023-05-17T12:23:55.537Z,22.60
2023-05-17T12:26:26.292Z,22.10
2023-05-17T12:28:58.134Z,20.60
2023-05-17T12:31:30.778Z,19.10
2023-05-17T12:34:02.536Z,20.20
2023-05-17T12:36:34.984Z,19.70
2023-05-17T12:39:11.403Z,20.70
2023-05-17T12:41:40.485Z,20.60
2023-05-17T12:46:43.627Z,19.40
2023-05-17T12:49:15.112Z,18.30
2023-05-17T12:51:48.887Z,18.50
2023-05-17T12:54:28.302Z,19.50
2023-05-17T12:59:29.293Z,17.00
2023-05-17T13:02:01.894Z,17.60
2023-05-17T13:04:33.791Z,18.40
2023-05-17T13:07:07.831Z,18.80
2023-05-17T13:09:50.089Z,18.00
2023-05-17T13:12:23.114Z,18.70
2023-05-17T13:14:56.188Z,18.70
2023-05-17T13:17:28.605Z,19.40
2023-05-17T13:19:59.381Z,20.70
2023-05-17T13:22:32.147Z,21.00
2023-05-17T13:27:31.039Z,19.10
2023-05-17T13:30:01.876Z,18.40
2023-05-17T13:32:32.617Z,19.30
2023-05-17T13:35:03.278Z,20.80
2023-05-17T13:37:34.780Z,20.40
2023-05-17T13:40:06.693Z,22.40
2023-05-17T13:42:37.907Z,21.80
2023-05-17T13:45:11.663Z,20.80
2023-05-17T13:47:41.403Z,21.70
2023-05-17T13:50:16.013Z,21.70
2023-05-17T13:52:47.085Z,21.50
2023-05-17T13:55:17.171Z,21.40
2023-05-17T13:57:46.749Z,21.30
2023-05-17T14:00:16.783Z,22.40
2023-05-17T14:02:46.500Z,22.10
2023-05-17T14:05:16.034Z,22.40
2023-05-17T14:07:48.245Z,21.70
2023-05-17T14:10:17.661Z,20.70
2023-05-17T14:12:47.972Z,20.00
2023-05-17T14:15:16.501Z,20.00
2023-05-17T14:17:47.206Z,20.10
2023-05-17T14:20:15.764Z,20.70
2023-05-17T14:22:47.032Z,21.30
2023-05-17T14:27:45.436Z,20.40
2023-05-17T14:30:16.749Z,19.40
2023-05-17T14:32:45.310Z,18.90
2023-05-17T14:35:14.186Z,18.80
2023-05-17T14:37:42.754Z,18.50
2023-05-17T14:40:13.222Z,17.80
2023-05-17T14:42:42.179Z,17.40
2023-05-17T14:45:12.064Z,17.50
2023-05-17T14:47:41.940Z,19.90
2023-05-17T14:50:13.123Z,18.70
2023-05-17T14:55:14.999Z,20.00
2023-05-17T15:00:16.255Z,18.20
2023-05-17T15:02:45.925Z,17.30
2023-05-17T15:05:16.999Z,17.50
2023-05-17T15:10:18.854Z,19.30
2023-05-17T15:12:48.604Z,19.90
2023-05-17T15:15:17.952Z,18.80
2023-05-17T15:17:49.174Z,18.90
2023-05-17T15:20:20.223Z,20.10
2023-05-17T15:22:50.420Z,20.50
2023-05-17T15:25:22.489Z,21.90
2023-05-17T15:27:50.956Z,20.70
2023-05-17T15:30:23.913Z,20.40
2023-05-17T15:35:22.103Z,20.60
2023-05-17T15:37:54.713Z,20.70
2023-05-17T15:40:25.142Z,20.40
2023-05-17T15:42:56.451Z,19.80
2023-05-17T15:50:26.803Z,16.80
2023-05-17T15:55:27.889Z,15.70
2023-05-17T16:00:28.067Z,14.90
2023-05-17T16:02:58.785Z,14.40
2023-05-17T16:10:38.189Z,13.00
2023-05-17T16:15:37.365Z,12.70
2023-05-17T16:18:06.417Z,14.80
2023-05-17T16:23:09.267Z,14.50
2023-05-17T16:25:39.014Z,14.00
2023-05-17T16:30:38.659Z,15.70
2023-05-17T16:35:40.126Z,16.30
2023-05-17T16:38:10.171Z,16.70
2023-05-17T16:40:41.849Z,16.90
2023-05-17T16:45:46.422Z,17.20
2023-05-17T16:48:16.590Z,17.50
2023-05-17T16:50:46.242Z,18.30
2023-05-17T16:53:15.869Z,17.40
2023-05-17T16:55:46.999Z,17.20
2023-05-17T17:03:16.810Z,16.50
2023-05-17T17:05:47.693Z,16.60
2023-05-17T17:08:16.087Z,15.40
2023-05-17T17:10:50.137Z,14.90
2023-05-17T17:13:18.874Z,14.20
2023-05-17T17:15:52.309Z,13.30
2023-05-17T17:18:21.877Z,13.10
2023-05-17T17:20:51.592Z,12.40
2023-05-17T17:23:20.078Z,12.90
2023-05-17T17:25:51.040Z,11.80
2023-05-17T17:33:19.973Z,11.10
2023-05-17T17:40:49.596Z,11.00
2023-05-17T17:43:19.220Z,12.10
2023-05-17T17:45:47.621Z,12.30
2023-05-17T17:50:45.727Z,12.10
2023-05-17T17:53:14.011Z,11.90
2023-05-17T17:58:13.203Z,12.40
2023-05-17T18:00:42.647Z,11.50
2023-05-17T18:03:12.105Z,11.70
2023-05-17T18:08:10.784Z,11.90
2023-05-17T18:10:40.492Z,12.80
2023-05-17T18:13:10.557Z,11.80
2023-05-17T18:15:40.321Z,12.30
2023-05-17T18:18:11.248Z,12.10
2023-05-17T18:20:41.354Z,10.70
2023-05-17T18:23:12.000Z,11.50
2023-05-17T18:28:11.516Z,11.90
2023-05-17T18:30:42.344Z,10.90
2023-05-17T18:35:40.754Z,11.30
2023-05-17T18:40:38.136Z,9.30
2023-05-17T18:48:07.656Z,9.20
2023-05-17T18:50:38.601Z,9.40
2023-05-17T18:53:08.225Z,9.00
2023-05-17T19:05:36.918Z,9.80
2023-05-17T19:10:39.920Z,9.40
2023-05-17T19:18:09.931Z,10.10
2023-05-17T19:28:08.819Z,10.00
2023-05-17T19:30:37.426Z,8.90
2023-05-17T19:35:40.239Z,8.70
2023-05-17T19:38:08.962Z,8.70
2023-05-17T19:40:39.513Z,11.00
2023-05-17T19:43:08.056Z,8.50
2023-05-17T19:45:37.507Z,8.40
2023-05-17T19:50:37.813Z,8.10
2023-05-17T19:53:07.352Z,10.20
2023-05-17T19:55:37.449Z,9.60
2023-05-17T20:00:35.322Z,8.90
2023-05-17T20:05:37.929Z,8.10
2023-05-17T20:13:10.597Z,8.30
2023-05-17T20:15:40.301Z,7.60
2023-05-17T20:20:41.385Z,8.00
2023-05-17T20:23:11.057Z,8.20
2023-05-17T20:25:41.057Z,6.90
2023-05-17T20:30:43.738Z,7.70
2023-05-17T20:33:12.333Z,6.50
2023-05-17T20:35:43.227Z,7.00
2023-05-17T20:40:43.151Z,8.00
2023-05-17T20:43:11.374Z,7.30
2023-05-17T20:45:41.378Z,7.70
2023-05-17T20:48:10.752Z,8.70
2023-05-17T20:50:40.303Z,5.60
2023-05-17T20:53:10.676Z,8.10
2023-05-17T20:55:41.570Z,8.40
2023-05-17T20:58:09.871Z,7.40
2023-05-17T21:00:39.528Z,5.80
2023-05-17T21:03:09.321Z,6.60
2023-05-17T21:05:38.553Z,8.10
2023-05-17T21:08:09.022Z,5.50
2023-05-17T21:15:42.359Z,5.40
2023-05-17T21:18:13.681Z,6.10
2023-05-17T21:23:15.609Z,6.10
2023-05-17T21:30:42.649Z,6.00
2023-05-17T21:33:12.084Z,4.60
2023-05-17T21:35:41.509Z,7.50
2023-05-17T21:38:11.547Z,5.10
2023-05-17T21:40:41.508Z,7.30
2023-05-17T21:43:11.320Z,4.80
2023-05-17T21:45:41.336Z,5.20
2023-05-17T21:48:09.977Z,7.30
2023-05-17T21:50:39.442Z,4.50
2023-05-17T21:53:09.100Z,7.20
2023-05-17T21:55:56.935Z,6.00
2023-05-17T21:58:33.084Z,5.60
2023-05-17T22:01:01.768Z,4.30
2023-05-17T22:03:30.197Z,4.50
2023-05-17T22:10:58.575Z,5.30
2023-05-17T22:15:59.644Z,5.20
2023-05-17T22:18:32.085Z,6.60
2023-05-17T22:23:31.498Z,6.00
2023-05-17T22:26:03.639Z,5.30
2023-05-17T22:28:33.068Z,6.20
2023-05-17T22:31:07.594Z,3.50
2023-05-17T22:33:38.491Z,6.10
2023-05-17T22:36:13.912Z,4.10
2023-05-17T22:38:42.631Z,5.70
2023-05-17T22:41:13.290Z,4.40
2023-05-17T22:43:42.934Z,4.50
2023-05-17T22:51:12.883Z,2.50
2023-05-17T22:53:41.346Z,3.90
2023-05-17T22:56:12.540Z,2.60
2023-05-17T23:03:42.596Z,5.00
2023-05-17T23:08:41.989Z,4.70
2023-05-17T23:11:11.624Z,3.30
2023-05-17T23:13:41.949Z,2.40
2023-05-17T23:18:40.578Z,2.90
2023-05-17T23:23:42.788Z,3.90
2023-05-17T23:26:15.857Z,2.90
2023-05-17T23:28:45.285Z,3.90
2023-05-17T23:31:13.793Z,1.50
2023-05-17T23:33:42.633Z,1.30
2023-05-17T23:36:13.672Z,1.20
2023-05-17T23:38:42.157Z,3.90
2023-05-17T23:43:49.935Z,4.00
2023-05-17T23:51:22.551Z,3.70
2023-05-17T23:53:51.299Z,4.50
2023-05-17T23:56:21.541Z,2.10
2023-05-17T23:58:53.590Z,3.30
